Time;durP1;ratioP1;P1;durP2;ratioP2;P2;SDS_P1;SDS_P2;PMS_P1;PMS_P2;Temp;Humidity;BMP_temperature;BMP_pressure;BME280_temperature;BME280_humidity;BME280_pressure;Samples;Min_cycle;Max_cycle;Signal;HPM_P1;HPM_P2
2022/01/19 00:02:25;;;;;;;55.65;52.25;;;;;;;-2.62;100.00;102530.53;5018834;28;20058;-81
2022/01/19 00:04:52;;;;;;;61.92;57.58;;;;;;;-2.65;100.00;102534.13;5025279;28;20426;-80
2022/01/19 00:07:18;;;;;;;56.65;53.13;;;;;;;-2.64;100.00;102527.16;5027511;28;20057;-81
2022/01/19 00:09:45;;;;;;;53.38;50.05;;;;;;;-3.07;100.00;102532.69;5024780;28;20046;-80
2022/01/19 00:12:13;;;;;;;59.17;55.20;;;;;;;-3.13;100.00;102535.56;5034936;28;20073;-81
2022/01/19 00:14:40;;;;;;;62.33;58.10;;;;;;;-3.28;100.00;102552.72;5025690;28;20533;-81
2022/01/19 00:17:07;;;;;;;60.92;57.05;;;;;;;-3.50;100.00;102550.28;5024974;28;20141;-80
2022/01/19 00:19:34;;;;;;;56.85;52.92;;;;;;;-3.56;100.00;102553.16;5015867;28;20061;-80
2022/01/19 00:22:00;;;;;;;52.92;49.15;;;;;;;-3.58;100.00;102557.56;5021180;28;20129;-81
2022/01/19 00:24:27;;;;;;;53.28;49.28;;;;;;;-3.84;100.00;102557.88;5025502;28;20061;-82
2022/01/19 00:26:54;;;;;;;55.70;51.70;;;;;;;-3.67;100.00;102564.94;5028207;28;20430;-80
2022/01/19 00:29:22;;;;;;;56.85;52.08;;;;;;;-3.98;100.00;102561.94;5027261;28;20054;-82
2022/01/19 00:31:49;;;;;;;56.20;50.35;;;;;;;-4.11;100.00;102563.38;5027100;28;20115;-80
2022/01/19 00:34:15;;;;;;;55.90;51.00;;;;;;;-4.02;100.00;102569.94;5028490;28;20045;-82
2022/01/19 00:36:42;;;;;;;54.72;50.15;;;;;;;-4.12;100.00;102566.03;5021618;28;20050;-82
2022/01/19 00:39:09;;;;;;;51.70;47.55;;;;;;;-4.16;100.00;102565.31;5024212;28;20053;-81
2022/01/19 00:41:36;;;;;;;52.20;47.38;;;;;;;-4.61;100.00;102563.72;5027732;28;20111;-79
2022/01/19 00:44:02;;;;;;;55.03;50.40;;;;;;;-4.42;100.00;102554.31;5033996;28;20104;-80
2022/01/19 00:46:30;;;;;;;51.30;47.03;;;;;;;-4.38;100.00;102563.63;5039331;28;20445;-84
2022/01/19 00:48:57;;;;;;;52.90;48.60;;;;;;;-4.53;100.00;102559.09;5025293;28;20046;-80
2022/01/19 00:51:24;;;;;;;53.80;48.53;;;;;;;-4.80;100.00;102555.84;5025172;28;20057;-80
2022/01/19 00:53:51;;;;;;;56.95;51.45;;;;;;;-4.85;100.00;102561.22;5026512;28;20565;-80
2022/01/19 00:56:18;;;;;;;57.42;52.78;;;;;;;-4.83;100.00;102568.94;5024263;28;20046;-81
2022/01/19 00:58:44;;;;;;;53.80;49.45;;;;;;;-4.79;100.00;102567.06;5035709;28;20466;-79
2022/01/19 01:01:11;;;;;;;60.72;55.58;;;;;;;-5.27;100.00;102557.72;5023541;28;20442;-80
2022/01/19 01:03:39;;;;;;;54.90;49.95;;;;;;;-5.26;100.00;102555.06;5020537;28;20426;-79
2022/01/19 01:06:06;;;;;;;54.63;49.95;;;;;;;-5.03;100.00;102555.91;5024927;28;20049;-80
2022/01/19 01:08:33;;;;;;;56.83;51.92;;;;;;;-5.49;100.00;102562.84;5029235;28;20045;-80
2022/01/19 01:11:00;;;;;;;59.85;53.60;;;;;;;-5.18;100.00;102559.94;5028867;28;20075;-81
2022/01/19 01:15:24;;;;;;;58.10;52.33;;;;;;;-5.37;100.00;102580.53;5024799;28;20056;-80
2022/01/19 01:16:18;;;;;;;58.10;52.40;;;;;;;-5.22;100.00;102560.97;5033792;28;20060;-79
2022/01/19 01:18:46;;;;;;;67.55;56.80;;;;;;;-5.80;100.00;102562.22;5022204;28;20053;-80
2022/01/19 01:21:13;;;;;;;69.70;58.53;;;;;;;-5.23;100.00;102552.38;5027622;28;20462;-79
2022/01/19 01:23:40;;;;;;;68.95;56.92;;;;;;;-5.19;100.00;102546.16;5023259;28;20061;-79
2022/01/19 01:26:09;;;;;;;65.32;55.88;;;;;;;-5.25;100.00;102543.78;5031570;28;20037;-81
2022/01/19 01:28:36;;;;;;;69.82;60.58;;;;;;;-5.30;100.00;102543.13;5023693;28;20049;-80
2022/01/19 01:31:04;;;;;;;67.22;60.33;;;;;;;-5.69;100.00;102542.88;5023462;28;20046;-80
2022/01/19 01:33:31;;;;;;;69.35;55.97;;;;;;;-5.67;100.00;102549.69;5020385;28;20462;-80
2022/01/19 01:35:59;;;;;;;64.18;55.83;;;;;;;-5.59;100.00;102547.66;5029327;28;20049;-80
2022/01/19 01:38:26;;;;;;;69.05;60.15;;;;;;;-5.87;100.00;102546.97;5023995;28;20072;-80
2022/01/19 01:40:53;;;;;;;66.35;59.72;;;;;;;-5.76;100.00;102553.44;5025966;28;20041;-80
2022/01/19 01:43:19;;;;;;;60.08;54.40;;;;;;;-5.66;100.00;102553.09;5025864;28;20057;-80
2022/01/19 01:45:50;;;;;;;59.72;53.97;;;;;;;-5.74;100.00;102557.75;5037096;28;20052;-80
2022/01/19 01:48:20;;;;;;;65.05;58.72;;;;;;;-5.54;100.00;102561.28;5037921;28;20049;-79
2022/01/19 01:53:35;;;;;;;55.67;51.47;;;;;;;-4.35;100.00;102561.81;5024046;28;20048;-81
2022/01/19 01:56:05;;;;;;;53.80;49.53;;;;;;;-4.10;100.00;102565.06;5021138;28;20050;-80
2022/01/19 01:58:33;;;;;;;54.03;49.72;;;;;;;-4.68;100.00;102568.31;5029369;28;20073;-79
2022/01/19 02:01:01;;;;;;;49.88;46.33;;;;;;;-4.50;100.00;102552.94;5030200;28;20049;-80
2022/01/19 02:03:29;;;;;;;51.58;47.72;;;;;;;-4.50;100.00;102561.56;5028027;28;20053;-80
2022/01/19 02:08:56;;;;;;;55.60;51.50;;;;;;;-4.70;100.00;102562.34;4993901;28;20111;-79
2022/01/19 02:23:06;;;;;;;55.08;50.63;;;;;;;-5.56;100.00;102557.06;5025277;28;20394;-80
2022/01/19 02:25:39;;;;;;;64.13;57.60;;;;;;;-5.45;100.00;102548.88;5026855;28;20049;-79
2022/01/19 02:36:49;;;;;;;56.88;52.58;;;;;;;-5.72;100.00;102568.88;5027392;28;20052;-79
2022/01/19 02:42:02;;;;;;;56.63;53.03;;;;;;;-6.08;100.00;102574.47;5023235;28;20072;-82
2022/01/19 02:44:42;;;;;;;55.75;51.08;;;;;;;-5.58;100.00;102590.78;5023179;28;20059;-81
2022/01/19 02:49:55;;;;;;;48.70;44.83;;;;;;;-5.41;100.00;102594.50;5027876;28;20068;-79
2022/01/19 02:52:25;;;;;;;53.80;49.60;;;;;;;-5.82;100.00;102589.91;5027087;28;20056;-79
2022/01/19 02:54:53;;;;;;;52.47;48.25;;;;;;;-5.75;100.00;102600.88;5037503;28;20060;-80
2022/01/19 02:57:24;;;;;;;54.00;49.67;;;;;;;-5.41;100.00;102597.09;5025983;28;20049;-80
2022/01/19 03:06:17;;;;;;;60.35;55.85;;;;;;;-5.19;100.00;102591.94;5024521;28;20045;-80
2022/01/19 03:10:56;;;;;;;54.10;50.50;;;;;;;-5.30;100.00;102606.13;5043726;28;20056;-79
2022/01/19 03:13:23;;;;;;;55.78;51.47;;;;;;;-5.43;100.00;102619.59;5046583;28;20059;-82
2022/01/19 03:15:49;;;;;;;60.38;55.65;;;;;;;-5.04;100.00;102604.31;5041192;28;20057;-80
2022/01/19 03:18:16;;;;;;;55.13;51.30;;;;;;;-5.83;100.00;102613.25;5046994;28;20061;-78
2022/01/19 03:20:43;;;;;;;59.58;55.03;;;;;;;-5.61;100.00;102616.78;5041791;28;20042;-82
2022/01/19 03:23:18;;;;;;;54.20;50.05;;;;;;;-5.72;100.00;102612.88;5038277;28;20452;-79
2022/01/19 03:25:45;;;;;;;54.17;50.38;;;;;;;-5.45;100.00;102609.28;5033506;28;20053;-79
2022/01/19 03:28:12;;;;;;;56.90;53.00;;;;;;;-5.08;100.00;102606.19;5043463;28;20072;-79
2022/01/19 03:30:39;;;;;;;60.60;56.22;;;;;;;-5.08;100.00;102613.97;5040909;28;20049;-79
2022/01/19 03:33:06;;;;;;;59.28;54.50;;;;;;;-5.18;100.00;102622.97;5051145;28;20250;-80
2022/01/19 03:35:33;;;;;;;61.40;55.55;;;;;;;-5.19;100.00;102617.84;5040577;28;20049;-80
2022/01/19 03:38:00;;;;;;;57.90;53.55;;;;;;;-5.49;100.00;102625.84;5042415;28;20050;-79
2022/01/19 03:40:28;;;;;;;55.35;51.60;;;;;;;-6.12;100.00;102624.63;5043417;28;20045;-80
2022/01/19 03:42:55;;;;;;;59.17;54.85;;;;;;;-5.65;100.00;102629.91;5046817;28;20049;-79
2022/01/19 03:45:22;;;;;;;57.78;53.80;;;;;;;-5.61;100.00;102626.28;5045187;28;20045;-79
2022/01/19 03:47:54;;;;;;;64.72;59.95;;;;;;;-5.25;100.00;102631.88;5051835;28;20078;-81
2022/01/19 03:50:21;;;;;;;58.40;54.08;;;;;;;-5.36;100.00;102636.59;5045712;28;20045;-80
2022/01/19 03:52:48;;;;;;;53.10;49.35;;;;;;;-6.07;100.00;102631.34;5046635;28;20045;-79
2022/01/19 03:55:15;;;;;;;54.75;50.53;;;;;;;-5.80;100.00;102626.09;5049706;28;20110;-80
2022/01/19 03:57:43;;;;;;;61.20;56.03;;;;;;;-6.16;100.00;102643.75;5047429;28;20061;-79
2022/01/19 04:00:11;;;;;;;57.78;53.30;;;;;;;-5.65;100.00;102642.84;5047477;28;20527;-79
2022/01/19 04:02:38;;;;;;;57.40;52.92;;;;;;;-5.09;100.00;102642.50;5049702;28;20378;-80
2022/01/19 04:05:10;;;;;;;54.88;50.00;;;;;;;-5.47;100.00;102647.38;5045873;28;20064;-80
2022/01/19 04:07:37;;;;;;;53.85;50.15;;;;;;;-5.54;100.00;102635.53;5047299;28;20088;-80
2022/01/19 04:10:05;;;;;;;55.67;51.38;;;;;;;-5.81;100.00;102648.56;5050240;28;20119;-81
2022/01/19 04:12:44;;;;;;;54.95;50.40;;;;;;;-5.80;100.00;102660.59;5050370;28;20123;-80
2022/01/19 04:15:14;;;;;;;61.00;56.47;;;;;;;-5.58;100.00;102652.91;5040394;28;20052;-79
2022/01/19 04:17:47;;;;;;;60.90;56.65;;;;;;;-5.66;100.00;102657.50;5050379;28;20447;-80
2022/01/19 04:20:14;;;;;;;60.53;56.35;;;;;;;-5.33;100.00;102660.66;5045419;28;20128;-78
2022/01/19 04:22:41;;;;;;;58.63;54.35;;;;;;;-6.38;100.00;102659.97;5050343;28;20045;-81
2022/01/19 04:25:08;;;;;;;70.55;65.05;;;;;;;-5.26;100.00;102674.25;5046703;28;20448;-80
2022/01/19 04:27:36;;;;;;;61.80;57.47;;;;;;;-5.75;100.00;102663.00;5047030;28;20085;-80
2022/01/19 04:30:08;;;;;;;59.83;55.45;;;;;;;-5.60;100.00;102661.63;5046657;28;20052;-79
2022/01/19 04:32:43;;;;;;;55.15;50.58;;;;;;;-5.98;100.00;102661.25;5051028;28;20103;-80
2022/01/19 04:35:13;;;;;;;54.28;50.40;;;;;;;-5.62;100.00;102666.03;5036975;28;20048;-80
2022/01/19 04:37:59;;;;;;;53.10;49.22;;;;;;;-5.78;100.00;102669.16;5049800;28;20086;-79
2022/01/19 04:54:30;;;;;;;53.60;49.50;;;;;;;-6.04;100.00;102666.63;5044267;28;20048;-79
2022/01/19 05:02:44;;;;;;;58.78;53.90;;;;;;;-5.69;100.00;102678.31;5015285;28;20159;-80
2022/01/19 05:05:20;;;;;;;52.88;49.03;;;;;;;-6.05;100.00;102675.25;5044718;28;20054;-79
2022/01/19 05:07:57;;;;;;;55.28;50.78;;;;;;;-5.98;100.00;102674.19;5047852;28;20057;-79
2022/01/19 05:13:25;;;;;;;54.30;50.10;;;;;;;-6.19;100.00;102675.75;5043711;28;20436;-80
2022/01/19 05:15:53;;;;;;;54.95;50.25;;;;;;;-5.94;100.00;102687.88;5047849;28;20139;-79
2022/01/19 05:18:20;;;;;;;55.60;51.10;;;;;;;-6.05;100.00;102695.97;5044838;28;20115;-79
2022/01/19 05:20:48;;;;;;;62.30;56.95;;;;;;;-5.85;100.00;102692.69;5044780;28;20057;-80
2022/01/19 05:23:16;;;;;;;76.72;70.95;;;;;;;-6.10;100.00;102687.53;5046700;28;20053;-82
2022/01/19 05:25:43;;;;;;;87.07;80.63;;;;;;;-6.40;100.00;102682.44;5043036;28;20042;-81
2022/01/19 05:28:10;;;;;;;65.10;60.20;;;;;;;-6.25;100.00;102681.09;5043980;28;20052;-80
2022/01/19 05:30:37;;;;;;;66.10;60.42;;;;;;;-6.11;100.00;102696.16;5049329;28;20128;-81
2022/01/19 05:33:04;;;;;;;62.78;57.55;;;;;;;-6.25;100.00;102705.22;5051116;28;20412;-80
2022/01/19 05:35:31;;;;;;;66.10;61.50;;;;;;;-6.32;100.00;102705.50;5047478;28;20048;-83
2022/01/19 05:37:59;;;;;;;59.60;54.85;;;;;;;-6.48;100.00;102711.09;5044501;28;20048;-79
2022/01/19 05:40:26;;;;;;;62.63;57.53;;;;;;;-6.68;100.00;102708.31;5034895;28;20115;-78
2022/01/19 05:42:53;;;;;;;60.03;54.95;;;;;;;-6.28;100.00;102707.06;5043449;28;20053;-82
2022/01/19 05:45:19;;;;;;;77.28;70.65;;;;;;;-6.34;100.00;102708.09;5044079;28;20821;-78
2022/01/19 05:47:47;;;;;;;80.47;72.97;;;;;;;-6.29;100.00;102714.00;5051552;28;20122;-80
2022/01/19 05:50:14;;;;;;;73.72;67.22;;;;;;;-6.64;100.00;102715.06;5045500;28;20057;-80
2022/01/19 05:52:41;;;;;;;73.13;65.97;;;;;;;-6.59;100.00;102723.53;5043507;28;20045;-81
2022/01/19 05:55:10;;;;;;;74.38;67.43;;;;;;;-6.83;100.00;102729.44;5042293;28;20057;-80
2022/01/19 05:57:37;;;;;;;105.20;82.75;;;;;;;-6.65;100.00;102735.81;5034232;28;20060;-80
2022/01/19 06:00:05;;;;;;;101.85;83.32;;;;;;;-6.54;100.00;102731.13;5042870;28;20497;-80
2022/01/19 06:02:32;;;;;;;84.55;75.38;;;;;;;-6.63;100.00;102740.00;5052080;28;20131;-79
2022/01/19 06:04:58;;;;;;;86.35;69.80;;;;;;;-6.56;100.00;102741.53;5046337;28;20127;-79
2022/01/19 06:07:29;;;;;;;91.47;70.55;;;;;;;-6.35;100.00;102744.38;5044172;28;20052;-81
2022/01/19 06:10:04;;;;;;;83.65;74.70;;;;;;;-6.29;100.00;102754.53;5041468;28;20476;-79
2022/01/19 06:12:32;;;;;;;81.25;72.53;;;;;;;-6.28;100.00;102754.47;5047764;28;20502;-80
2022/01/19 06:15:00;;;;;;;79.45;70.93;;;;;;;-6.26;100.00;102757.03;5045285;28;20123;-81
2022/01/19 06:17:27;;;;;;;78.82;67.78;;;;;;;-5.98;100.00;102767.34;5047497;28;20049;-80
2022/01/19 06:19:54;;;;;;;87.97;78.13;;;;;;;-5.81;100.00;102759.88;5049676;28;20064;-79
2022/01/19 06:22:22;;;;;;;83.68;75.05;;;;;;;-5.73;100.00;102758.75;5046456;28;20056;-81
2022/01/19 06:24:49;;;;;;;88.75;80.70;;;;;;;-5.55;100.00;102758.97;5048204;28;20056;-80
2022/01/19 06:27:16;;;;;;;87.10;79.60;;;;;;;-5.41;100.00;102757.69;5048666;28;20045;-80
2022/01/19 06:29:44;;;;;;;101.80;91.80;;;;;;;-5.24;100.00;102763.09;5049010;28;20122;-80
2022/01/19 06:32:13;;;;;;;93.03;84.22;;;;;;;-4.84;100.00;102759.13;5047219;28;20540;-80
2022/01/19 06:34:42;;;;;;;93.63;84.00;;;;;;;-4.63;100.00;102760.03;5052489;28;20127;-78
2022/01/19 06:37:11;;;;;;;89.38;80.43;;;;;;;-3.72;100.00;102747.78;5047474;28;20114;-79
2022/01/19 06:39:38;;;;;;;89.32;80.07;;;;;;;-3.38;100.00;102745.53;5043805;28;20107;-79
2022/01/19 06:42:11;;;;;;;84.28;75.45;;;;;;;2.41;100.00;102758.13;5051652;28;20049;-79
2022/01/19 06:44:38;;;;;;;97.82;87.43;;;;;;;-1.79;100.00;102747.72;5043751;28;20110;-80
2022/01/19 06:47:06;;;;;;;95.97;85.53;;;;;;;-2.83;100.00;102749.13;5042640;28;20049;-77
2022/01/19 06:49:33;;;;;;;101.07;86.18;;;;;;;-3.41;100.00;102749.09;5043455;28;20053;-78
2022/01/19 06:52:01;;;;;;;88.68;79.93;;;;;;;-1.95;100.00;102752.84;5047113;28;20106;-80
2022/01/19 06:54:28;;;;;;;80.40;73.10;;;;;;;-2.51;100.00;102756.38;5049630;28;20140;-78
2022/01/19 06:56:55;;;;;;;73.82;67.68;;;;;;;-1.85;100.00;102747.13;5049139;28;20055;-79
2022/01/19 06:59:22;;;;;;;78.63;71.35;;;;;;;-1.16;100.00;102751.44;5045947;28;20049;-78
2022/01/19 07:01:48;;;;;;;77.18;70.65;;;;;;;-1.33;100.00;102745.41;5047745;28;20515;-78
2022/01/19 07:04:17;;;;;;;79.43;72.78;;;;;;;-0.73;100.00;102743.09;5042588;28;20089;-80
2022/01/19 07:06:44;;;;;;;84.15;77.35;;;;;;;-0.26;100.00;102745.72;5046800;28;20057;-80
2022/01/19 07:09:11;;;;;;;85.50;78.35;;;;;;;-0.15;100.00;102745.13;5050101;28;20045;-78
2022/01/19 07:11:38;;;;;;;85.15;77.90;;;;;;;-0.19;100.00;102742.75;5043424;28;20048;-79
2022/01/19 07:14:07;;;;;;;79.38;72.75;;;;;;;0.51;100.00;102740.44;5048656;28;20045;-80
2022/01/19 07:16:33;;;;;;;85.57;78.47;;;;;;;0.25;100.00;102737.63;5035045;28;20370;-78
2022/01/19 07:19:00;;;;;;;88.72;81.13;;;;;;;1.07;100.00;102744.06;5066885;28;20048;-81
2022/01/19 07:21:28;;;;;;;84.22;76.60;;;;;;;1.32;100.00;102743.38;5070436;28;20443;-79
2022/01/19 07:23:55;;;;;;;90.57;83.07;;;;;;;0.39;100.00;102736.78;5071238;28;20053;-79
2022/01/19 07:26:22;;;;;;;100.15;91.38;;;;;;;1.72;100.00;102736.44;5066494;28;20557;-77
2022/01/19 07:28:49;;;;;;;90.82;83.13;;;;;;;1.59;100.00;102731.13;5067470;28;20370;-79
2022/01/19 07:31:16;;;;;;;92.70;84.40;;;;;;;1.15;100.00;102736.56;5071637;28;20048;-78
2022/01/19 07:33:43;;;;;;;93.95;86.03;;;;;;;1.67;100.00;102729.84;5070651;28;20044;-80
2022/01/19 07:36:09;;;;;;;90.78;83.07;;;;;;;2.64;100.00;102734.75;5066565;28;20106;-78
2022/01/19 07:38:38;;;;;;;91.43;83.53;;;;;;;2.88;100.00;102734.84;5067720;28;20044;-80
2022/01/19 07:41:04;;;;;;;90.63;83.63;;;;;;;3.49;100.00;102737.56;5070661;28;20112;-79
2022/01/19 07:43:31;;;;;;;83.75;77.47;;;;;;;1.77;100.00;102736.16;5067759;28;20354;-81
2022/01/19 07:45:58;;;;;;;84.50;77.60;;;;;;;0.10;100.00;102722.81;5068328;28;20477;-78
2022/01/19 07:48:25;;;;;;;80.40;74.50;;;;;;;1.20;100.00;102724.03;5067353;28;20508;-79
2022/01/19 07:50:52;;;;;;;77.47;71.80;;;;;;;1.20;100.00;102723.19;5071696;28;20045;-81
2022/01/19 07:53:18;;;;;;;79.22;72.78;;;;;;;1.53;100.00;102723.69;5064649;28;20580;-78
2022/01/19 07:55:49;;;;;;;79.20;72.72;;;;;;;1.63;100.00;102717.84;5071507;28;20040;-80
2022/01/19 07:58:16;;;;;;;84.15;77.75;;;;;;;2.48;100.00;102713.94;5071784;28;20060;-81
2022/01/19 08:00:43;;;;;;;82.00;75.90;;;;;;;1.43;100.00;102700.81;5070994;28;20396;-81
2022/01/19 08:03:10;;;;;;;80.40;73.97;;;;;;;0.47;100.00;102704.97;5071155;28;20063;-80
2022/01/19 08:05:37;;;;;;;80.80;74.88;;;;;;;2.59;100.00;102708.81;5064280;28;20493;-78
2022/01/19 08:08:03;;;;;;;81.10;74.95;;;;;;;1.19;100.00;102724.13;5068784;28;20392;-80
2022/01/19 08:10:31;;;;;;;80.68;74.90;;;;;;;2.10;100.00;102716.53;5069643;28;20051;-79
2022/01/19 08:13:02;;;;;;;81.22;74.90;;;;;;;1.96;100.00;102720.06;5071536;28;20044;-78
2022/01/19 08:15:29;;;;;;;81.77;75.63;;;;;;;1.69;100.00;102722.69;5072496;28;20052;-78
2022/01/19 08:17:56;;;;;;;78.85;72.72;;;;;;;2.70;100.00;102729.09;5074498;28;20051;-79
2022/01/19 08:20:23;;;;;;;83.95;77.45;;;;;;;4.38;100.00;102723.94;5040829;28;20409;-80
2022/01/19 08:22:50;;;;;;;87.93;81.13;;;;;;;2.96;100.00;102728.09;5071667;28;20045;-78
2022/01/19 08:25:17;;;;;;;87.60;80.78;;;;;;;2.25;100.00;102734.72;5065032;28;20044;-80
2022/01/19 08:27:44;;;;;;;89.28;82.68;;;;;;;3.37;100.00;102736.66;5071834;28;20481;-81
2022/01/19 08:30:13;;;;;;;85.22;78.93;;;;;;;1.53;100.00;102734.16;5069416;28;20048;-79
2022/01/19 08:32:41;;;;;;;85.30;78.43;;;;;;;1.12;100.00;102745.47;5074347;28;20044;-81
2022/01/19 08:35:09;;;;;;;90.85;83.78;;;;;;;2.65;100.00;102731.19;5072522;28;20045;-79
2022/01/19 08:37:36;;;;;;;93.47;86.32;;;;;;;1.60;100.00;102729.34;5069088;28;20060;-80
2022/01/19 08:40:05;;;;;;;89.75;83.00;;;;;;;2.39;100.00;102727.69;5070417;28;20121;-80
2022/01/19 08:42:33;;;;;;;85.22;79.32;;;;;;;3.13;100.00;102726.09;5067785;28;20377;-80
2022/01/19 08:45:04;;;;;;;85.50;79.53;;;;;;;3.33;100.00;102728.16;5066867;28;20467;-78
2022/01/19 08:47:33;;;;;;;93.68;86.95;;;;;;;2.67;100.00;102716.19;5055900;28;20052;-79
2022/01/19 08:50:00;;;;;;;88.00;81.28;;;;;;;2.78;100.00;102712.81;5064622;28;20057;-80
2022/01/19 08:52:26;;;;;;;88.55;82.03;;;;;;;4.58;100.00;102701.38;5054749;28;20041;-79
2022/01/19 08:54:53;;;;;;;90.43;83.28;;;;;;;3.86;100.00;102709.44;5066676;28;20050;-80
2022/01/19 08:57:21;;;;;;;91.78;85.05;;;;;;;4.05;100.00;102704.47;5061493;28;20052;-79
2022/01/19 08:59:48;;;;;;;91.78;84.75;;;;;;;5.22;100.00;102704.22;5068982;28;20139;-80
2022/01/19 09:02:14;;;;;;;94.88;87.68;;;;;;;5.49;100.00;102706.44;5055506;28;20049;-80
2022/01/19 09:04:43;;;;;;;84.45;78.03;;;;;;;4.54;100.00;102702.59;5065954;28;20059;-81
2022/01/19 09:07:09;;;;;;;91.07;84.07;;;;;;;3.66;100.00;102697.75;5065892;28;20060;-78
2022/01/19 09:09:36;;;;;;;89.05;82.72;;;;;;;7.31;98.45;102691.97;5057045;28;20049;-79
2022/01/19 09:12:03;;;;;;;84.93;78.53;;;;;;;4.55;100.00;102686.66;5064217;28;20048;-81
2022/01/19 09:14:31;;;;;;;87.00;80.28;;;;;;;5.85;100.00;102685.13;5065346;28;20056;-78
2022/01/19 09:16:58;;;;;;;87.05;80.38;;;;;;;4.38;100.00;102688.91;5064979;28;20468;-80
2022/01/19 09:19:25;;;;;;;84.85;78.35;;;;;;;6.43;98.20;102677.63;5061417;28;20109;-79
2022/01/19 09:21:55;;;;;;;84.40;77.90;;;;;;;4.31;100.00;102683.28;5068118;28;20049;-80
2022/01/19 09:24:22;;;;;;;88.03;81.63;;;;;;;6.95;95.72;102677.56;5064667;28;20212;-80
2022/01/19 09:26:49;;;;;;;87.78;80.95;;;;;;;6.04;97.96;102666.00;5063624;28;20117;-79
2022/01/19 09:29:16;;;;;;;81.72;75.80;;;;;;;5.53;92.84;102664.03;5063053;28;20056;-82
2022/01/19 09:31:44;;;;;;;80.15;74.50;;;;;;;4.25;96.43;102658.28;5073016;28;20108;-80
2022/01/19 09:34:14;;;;;;;88.10;81.68;;;;;;;6.69;89.74;102650.75;5069815;28;20045;-80
2022/01/19 09:36:46;;;;;;;92.95;86.60;;;;;;;6.31;95.75;102639.06;5062122;28;20052;-80
2022/01/19 09:39:16;;;;;;;86.17;80.17;;;;;;;5.85;82.98;102627.94;5068365;28;20052;-80
2022/01/19 09:41:45;;;;;;;85.30;79.38;;;;;;;6.34;83.51;102637.00;5065701;28;20382;-79
2022/01/19 09:44:12;;;;;;;93.35;86.53;;;;;;;5.10;89.01;102622.72;5066185;28;20049;-79
2022/01/19 09:46:39;;;;;;;86.53;80.43;;;;;;;5.60;84.18;102623.00;5072135;28;20049;-82
2022/01/19 09:49:06;;;;;;;83.90;77.80;;;;;;;5.16;96.71;102623.06;5070203;28;20049;-80
2022/01/19 09:51:33;;;;;;;89.43;83.10;;;;;;;5.71;82.26;102633.50;5069423;28;20139;-81
2022/01/19 09:54:00;;;;;;;91.85;85.13;;;;;;;5.49;82.95;102634.44;5068616;28;20037;-79
2022/01/19 09:56:29;;;;;;;83.65;77.35;;;;;;;5.60;86.30;102629.16;5068003;28;20053;-78
2022/01/19 20:43:57;;;;;;;132.50;71.95;;;;;;;-4.06;100.00;102111.53;5184470;27;20363;-80
2022/01/19 20:46:23;;;;;;;79.82;56.10;;;;;;;-3.87;100.00;102119.22;5162714;27;20046;-80
2022/01/19 20:48:51;;;;;;;72.50;58.88;;;;;;;-3.89;100.00;102119.34;5049166;27;20106;-79
2022/01/19 20:51:17;;;;;;;63.35;54.95;;;;;;;-3.93;100.00;102113.47;5036993;27;20058;-80
2022/01/19 20:53:45;;;;;;;58.72;52.33;;;;;;;-4.37;100.00;102100.94;5050370;28;20060;-79
2022/01/19 20:56:11;;;;;;;59.95;53.25;;;;;;;-3.95;100.00;102098.88;5127019;28;20108;-81
2022/01/19 20:58:38;;;;;;;62.88;53.08;;;;;;;-3.95;100.00;102104.06;5129482;28;20066;-79
2022/01/19 21:01:08;;;;;;;64.63;56.58;;;;;;;-3.97;100.00;102095.50;5122576;28;20510;-79
2022/01/19 21:03:35;;;;;;;62.22;54.20;;;;;;;-3.90;100.00;102102.09;5128688;28;20047;-81
2022/01/19 21:06:02;;;;;;;65.43;55.78;;;;;;;-3.79;100.00;102101.53;5117385;28;20065;-82
2022/01/19 21:08:29;;;;;;;78.40;56.17;;;;;;;-3.83;100.00;102089.63;5129623;28;20062;-80
2022/01/19 21:10:56;;;;;;;71.10;57.47;;;;;;;-3.82;100.00;102092.13;5118186;28;20070;-79
2022/01/19 21:13:23;;;;;;;65.18;56.55;;;;;;;-3.64;100.00;102087.75;5127313;28;20211;-80
2022/01/19 21:15:50;;;;;;;65.45;55.92;;;;;;;-3.74;100.00;102078.75;5128738;28;20092;-80
2022/01/19 21:18:19;;;;;;;59.63;53.58;;;;;;;-3.44;100.00;102075.47;5115913;27;20047;-81
2022/01/19 21:20:46;;;;;;;57.28;51.97;;;;;;;-3.19;100.00;102072.38;5106236;28;20526;-80
2022/01/19 21:23:13;;;;;;;177.55;80.18;;;;;;;-3.01;100.00;102079.16;5107459;28;20048;-81
2022/01/19 21:25:41;;;;;;;82.68;62.55;;;;;;;-3.05;100.00;102086.31;5106016;28;20055;-78
2022/01/19 21:28:08;;;;;;;136.18;76.90;;;;;;;-3.43;100.00;102080.56;5098541;28;20063;-81
2022/01/19 21:30:35;;;;;;;273.80;112.50;;;;;;;-3.82;100.00;102084.34;5101446;28;20117;-80
2022/01/19 21:33:03;;;;;;;119.10;72.43;;;;;;;-4.00;100.00;102085.28;5102155;28;20109;-81
2022/01/19 21:35:31;;;;;;;95.07;66.53;;;;;;;-4.01;100.00;102081.84;5109636;28;20054;-80
2022/01/19 21:37:58;;;;;;;94.82;68.40;;;;;;;-3.89;100.00;102082.97;5077149;28;20078;-81
2022/01/19 21:40:27;;;;;;;92.18;64.47;;;;;;;-4.09;100.00;102076.19;5097249;28;20063;-81
2022/01/19 21:42:55;;;;;;;114.95;78.15;;;;;;;-2.93;100.00;102074.41;5109686;28;20130;-82
2022/01/19 21:45:24;;;;;;;128.13;89.13;;;;;;;-3.28;100.00;102071.13;5092525;28;20052;-80
2022/01/19 21:47:51;;;;;;;136.27;85.70;;;;;;;-3.19;100.00;102067.19;5100306;28;20048;-80
2022/01/19 21:50:19;;;;;;;107.90;84.05;;;;;;;-3.08;100.00;102068.28;5109297;28;20483;-81
2022/01/19 21:52:47;;;;;;;85.55;74.78;;;;;;;-3.06;100.00;102061.22;5107104;28;20064;-81
2022/01/19 21:55:14;;;;;;;92.45;78.45;;;;;;;-3.33;100.00;102055.78;5086785;28;20466;-80
2022/01/19 21:57:41;;;;;;;81.32;61.28;;;;;;;-3.28;100.00;102045.13;5087534;28;20056;-80
2022/01/19 22:00:11;;;;;;;74.28;60.78;;;;;;;-3.15;100.00;102051.31;5091565;28;20516;-80
2022/01/19 22:02:38;;;;;;;65.85;58.63;;;;;;;-2.77;100.00;102043.16;5090272;28;20117;-80
2022/01/19 22:05:06;;;;;;;62.67;56.05;;;;;;;-3.04;100.00;102041.19;5044517;28;20052;-80
2022/01/19 22:07:33;;;;;;;89.13;63.55;;;;;;;-3.68;100.00;102023.91;5082940;28;20112;-81
2022/01/19 22:10:01;;;;;;;100.78;72.28;;;;;;;-3.83;100.00;102024.72;5081249;28;20040;-80
2022/01/19 22:12:28;;;;;;;80.38;67.00;;;;;;;-3.87;100.00;102018.84;5089637;28;20058;-81
2022/01/19 22:14:55;;;;;;;86.72;67.45;;;;;;;-3.97;100.00;102008.09;5086464;28;20048;-80
2022/01/19 22:17:21;;;;;;;233.13;122.50;;;;;;;-4.02;100.00;102009.28;5083712;28;20044;-80
2022/01/19 22:19:49;;;;;;;292.45;131.80;;;;;;;-3.35;100.00;102010.84;5088978;28;20052;-80
2022/01/19 22:22:17;;;;;;;240.98;118.63;;;;;;;-3.99;100.00;102011.72;5084512;28;20040;-80
2022/01/19 22:24:44;;;;;;;157.55;84.20;;;;;;;-4.34;100.00;102010.91;5087680;28;20434;-81
2022/01/19 22:27:13;;;;;;;235.02;117.38;;;;;;;-4.00;100.00;102008.25;5086816;28;20072;-80
2022/01/19 22:29:40;;;;;;;204.38;112.63;;;;;;;-3.84;100.00;102010.91;5085603;28;20411;-79
2022/01/19 22:32:08;;;;;;;71.22;58.83;;;;;;;-2.72;100.00;102009.94;5090348;28;20051;-81
2022/01/19 22:34:35;;;;;;;75.07;60.80;;;;;;;-3.15;100.00;102003.69;5088022;28;20408;-80
2022/01/19 22:37:02;;;;;;;83.07;62.67;;;;;;;-3.91;100.00;101991.34;5082403;28;20085;-81
2022/01/19 22:39:29;;;;;;;100.00;79.25;;;;;;;-3.33;100.00;101985.63;5092467;28;20056;-79
2022/01/19 22:41:57;;;;;;;64.22;57.65;;;;;;;-2.79;100.00;101973.00;5087273;28;20076;-80
2022/01/19 22:44:26;;;;;;;63.03;56.55;;;;;;;-3.76;100.00;101961.16;5092610;28;20044;-81
2022/01/19 22:46:55;;;;;;;65.93;59.17;;;;;;;-3.11;100.00;101959.28;5095598;28;20386;-79
2022/01/19 22:49:22;;;;;;;54.63;50.03;;;;;;;-2.67;100.00;101948.06;5086916;28;20370;-81
2022/01/19 22:51:51;;;;;;;56.55;51.97;;;;;;;-2.68;100.00;101940.34;5087415;28;20480;-80
2022/01/19 22:54:18;;;;;;;52.67;48.67;;;;;;;-2.41;100.00;101936.13;5081741;28;20110;-80